createdAt,value
2019-02-09T00:00:34.137Z,98.80
2019-02-09T00:03:02.947Z,98.40
2019-02-09T00:05:31.652Z,97.60
2019-02-09T00:08:00.321Z,97.70
2019-02-09T00:10:28.954Z,98.10
2019-02-09T00:12:57.616Z,98.20
2019-02-09T00:15:26.319Z,97.80
2019-02-09T00:17:54.978Z,98.00
2019-02-09T00:20:23.610Z,98.20
2019-02-09T00:22:52.229Z,97.70
2019-02-09T00:25:23.130Z,97.50
2019-02-09T00:27:51.827Z,97.50
2019-02-09T00:30:22.726Z,97.10
2019-02-09T00:32:51.426Z,96.90
2019-02-09T00:35:22.007Z,96.60
2019-02-09T00:37:50.705Z,95.60
2019-02-09T00:40:24.190Z,95.80
2019-02-09T00:42:52.829Z,95.00
2019-02-09T00:45:22.823Z,94.90
2019-02-09T00:47:51.591Z,94.10
2019-02-09T00:50:20.772Z,93.90
2019-02-09T00:52:49.895Z,93.20
2019-02-09T00:55:27.454Z,92.80
2019-02-09T00:57:56.987Z,92.30
2019-02-09T01:00:32.423Z,92.30
2019-02-09T01:03:01.384Z,92.20
2019-02-09T01:05:42.013Z,91.50
2019-02-09T01:08:10.842Z,91.30
2019-02-09T01:10:39.547Z,91.50
2019-02-09T01:13:08.262Z,91.40
2019-02-09T01:15:37.173Z,91.30
2019-02-09T01:18:05.988Z,91.20
2019-02-09T01:20:37.454Z,91.30
2019-02-09T01:23:09.264Z,91.60
2019-02-09T01:25:37.991Z,91.80
2019-02-09T01:28:06.707Z,91.70
2019-02-09T01:30:35.530Z,91.90
2019-02-09T01:33:04.237Z,92.00
2019-02-09T01:35:33.923Z,92.00
2019-02-09T01:38:02.614Z,92.10
2019-02-09T01:40:31.352Z,92.10
2019-02-09T01:42:59.919Z,92.30
2019-02-09T01:45:31.618Z,92.50
2019-02-09T01:48:01.117Z,92.50
2019-02-09T01:50:31.919Z,92.40
2019-02-09T01:53:01.248Z,92.60
2019-02-09T01:55:30.037Z,92.70
2019-02-09T01:58:13.309Z,92.50
2019-02-09T02:00:37.666Z,92.30
2019-02-09T02:03:06.494Z,92.40
2019-02-09T02:05:35.201Z,92.40
2019-02-09T02:08:04.730Z,92.70
2019-02-09T02:10:35.593Z,92.70
2019-02-09T02:13:06.427Z,92.80
2019-02-09T02:15:35.222Z,92.90
2019-02-09T02:18:06.877Z,93.00
2019-02-09T02:20:35.569Z,93.10
2019-02-09T02:23:04.662Z,93.10
2019-02-09T02:25:33.484Z,93.10
2019-02-09T02:28:02.194Z,93.10
2019-02-09T02:30:38.640Z,93.30
2019-02-09T02:33:08.441Z,92.90
2019-02-09T02:35:38.584Z,93.90
2019-02-09T02:38:07.775Z,93.50
2019-02-09T02:40:36.500Z,96.00
2019-02-09T02:43:05.312Z,98.00
2019-02-09T02:45:34.137Z,97.00
2019-02-09T02:48:02.846Z,97.00
2019-02-09T02:50:31.822Z,97.90
2019-02-09T02:53:00.468Z,97.60
2019-02-09T02:55:31.003Z,98.10
2019-02-09T02:57:59.652Z,98.40
2019-02-09T03:00:35.215Z,97.80
2019-02-09T03:03:03.920Z,97.10
2019-02-09T03:05:32.630Z,97.30
2019-02-09T03:08:01.345Z,98.20
2019-02-09T03:10:30.043Z,98.80
2019-02-09T03:12:58.770Z,98.50
2019-02-09T03:15:32.029Z,98.80
2019-02-09T03:18:00.767Z,99.20
2019-02-09T03:20:29.689Z,98.60
2019-02-09T03:22:58.305Z,99.60
2019-02-09T03:25:36.694Z,99.50
2019-02-09T03:28:05.436Z,99.70
2019-02-09T03:30:46.364Z,99.30
2019-02-09T03:33:04.616Z,99.90
2019-02-09T03:35:33.325Z,99.90
2019-02-09T03:38:01.975Z,99.90
2019-02-09T03:40:30.647Z,99.90
2019-02-09T03:42:59.246Z,99.90
2019-02-09T03:45:32.624Z,99.90
2019-02-09T03:48:01.821Z,99.90
2019-02-09T03:50:32.462Z,99.90
2019-02-09T03:53:01.571Z,99.90
2019-02-09T03:55:30.391Z,99.90
2019-02-09T03:57:59.082Z,99.90
2019-02-09T04:00:29.638Z,99.90
2019-02-09T04:02:58.991Z,99.90
2019-02-09T04:05:27.693Z,99.90
2019-02-09T04:07:56.410Z,99.90
2019-02-09T04:10:29.733Z,99.90
2019-02-09T04:12:58.461Z,99.90
2019-02-09T04:15:28.559Z,99.90
2019-02-09T04:17:57.682Z,99.90
2019-02-09T04:20:26.699Z,99.90
2019-02-09T04:22:55.583Z,99.90
2019-02-09T04:25:24.545Z,99.90
2019-02-09T04:27:53.229Z,99.90
2019-02-09T04:30:24.050Z,99.90
2019-02-09T04:32:52.874Z,99.90
2019-02-09T04:35:21.691Z,99.90
2019-02-09T04:37:50.424Z,99.90
2019-02-09T04:40:30.189Z,99.90
2019-02-09T04:42:59.036Z,99.90
2019-02-09T04:45:27.780Z,99.90
2019-02-09T04:47:57.018Z,99.90
2019-02-09T04:50:26.261Z,99.90
2019-02-09T04:52:54.976Z,99.90
2019-02-09T04:55:27.829Z,99.90
2019-02-09T04:57:56.666Z,99.90
2019-02-09T05:00:30.316Z,99.90
2019-02-09T05:02:59.174Z,99.90
2019-02-09T05:05:29.854Z,99.90
2019-02-09T05:07:58.666Z,99.90
2019-02-09T05:10:27.398Z,99.90
2019-02-09T05:12:56.188Z,99.90
2019-02-09T05:15:25.116Z,99.90
2019-02-09T05:17:53.751Z,99.90
2019-02-09T05:20:25.127Z,99.90
2019-02-09T05:22:54.989Z,99.90
2019-02-09T05:25:23.988Z,99.90
2019-02-09T05:27:52.731Z,99.90
2019-02-09T05:30:26.715Z,99.90
2019-02-09T05:32:55.437Z,99.90
2019-02-09T05:35:24.534Z,99.90
2019-02-09T05:37:53.277Z,99.90
2019-02-09T05:40:26.207Z,99.90
2019-02-09T05:42:57.747Z,99.90
2019-02-09T05:45:29.169Z,99.90
2019-02-09T05:47:58.043Z,99.90
2019-02-09T05:50:26.840Z,99.90
2019-02-09T05:52:55.581Z,99.90
2019-02-09T05:55:24.346Z,99.90
2019-02-09T05:57:52.969Z,99.90
2019-02-09T06:00:38.042Z,99.90
2019-02-09T06:03:06.781Z,99.90
2019-02-09T06:05:35.484Z,99.90
2019-02-09T06:08:04.803Z,99.90
2019-02-09T06:10:33.507Z,99.90
2019-02-09T06:13:02.211Z,99.90
2019-02-09T06:15:31.229Z,99.90
2019-02-09T06:17:59.859Z,99.90
2019-02-09T06:20:30.445Z,99.90
2019-02-09T06:22:59.272Z,99.90
2019-02-09T06:25:28.551Z,99.90
2019-02-09T06:27:59.970Z,99.90
2019-02-09T06:30:32.826Z,99.90
2019-02-09T06:33:01.531Z,99.90
2019-02-09T06:35:30.626Z,99.90
2019-02-09T06:37:59.372Z,99.90
2019-02-09T06:40:28.064Z,99.90
2019-02-09T06:42:56.798Z,99.90
2019-02-09T06:45:29.002Z,99.90
2019-02-09T06:48:23.145Z,99.90
2019-02-09T06:50:51.907Z,99.90
2019-02-09T06:53:20.455Z,99.90
2019-02-09T06:55:49.151Z,99.90
2019-02-09T06:58:17.879Z,99.90
2019-02-09T07:00:46.577Z,99.90
2019-02-09T07:03:15.236Z,99.90
2019-02-09T07:05:43.942Z,99.90
2019-02-09T07:08:12.666Z,99.90
2019-02-09T07:10:41.363Z,99.90
2019-02-09T07:13:10.091Z,99.90
2019-02-09T07:15:38.786Z,99.90
2019-02-09T07:18:07.701Z,99.90
2019-02-09T07:20:36.507Z,99.90
2019-02-09T07:23:06.450Z,99.90
2019-02-09T07:25:35.199Z,99.90
2019-02-09T07:28:09.150Z,99.90
2019-02-09T07:30:37.402Z,99.90
2019-02-09T07:33:08.540Z,99.90
2019-02-09T07:35:37.356Z,99.90
2019-02-09T07:38:06.357Z,99.90
2019-02-09T07:40:36.638Z,99.90
2019-02-09T07:43:06.580Z,99.90
2019-02-09T07:45:39.102Z,99.90
2019-02-09T07:48:17.437Z,99.90
2019-02-09T07:50:46.919Z,99.90
2019-02-09T07:53:17.221Z,99.90
2019-02-09T07:55:46.680Z,99.90
2019-02-09T07:58:15.481Z,99.90
2019-02-09T08:00:59.092Z,99.90
2019-02-09T08:03:29.309Z,99.90
2019-02-09T08:05:58.244Z,99.90
2019-02-09T08:08:28.535Z,99.90
2019-02-09T08:10:57.178Z,99.90
2019-02-09T08:13:26.624Z,99.90
2019-02-09T08:15:55.315Z,99.90
2019-02-09T08:18:24.050Z,99.90
2019-02-09T08:20:53.611Z,99.90
2019-02-09T08:23:29.541Z,99.90
2019-02-09T08:26:02.959Z,99.90
2019-02-09T08:28:33.763Z,98.30
2019-02-09T08:31:04.604Z,98.30
2019-02-09T08:33:36.433Z,98.00
2019-02-09T08:36:06.697Z,97.80
2019-02-09T08:38:40.197Z,97.10
2019-02-09T08:41:10.864Z,95.10
2019-02-09T08:43:43.122Z,94.80
2019-02-09T08:46:11.822Z,92.50
2019-02-09T08:48:40.557Z,91.20
2019-02-09T08:51:11.297Z,91.30
2019-02-09T08:53:39.926Z,92.20
2019-02-09T08:56:09.094Z,92.60
2019-02-09T08:58:38.923Z,92.70
2019-02-09T09:01:08.373Z,93.40
2019-02-09T09:03:38.294Z,93.60
2019-02-09T09:06:09.574Z,93.90
2019-02-09T09:08:41.894Z,93.00
2019-02-09T09:11:14.573Z,92.60
2019-02-09T09:13:46.259Z,91.50
2019-02-09T09:16:15.495Z,91.30
2019-02-09T09:18:44.178Z,90.90
2019-02-09T09:21:12.861Z,91.60
2019-02-09T09:24:06.986Z,91.80
2019-02-09T09:26:36.326Z,91.00
2019-02-09T09:29:05.461Z,90.40
2019-02-09T09:31:34.162Z,83.10
2019-02-09T09:34:02.888Z,72.90
2019-02-09T09:36:32.153Z,68.30
2019-02-09T09:39:00.894Z,69.90
2019-02-09T09:41:31.022Z,72.70
2019-02-09T09:43:59.699Z,76.60
2019-02-09T09:46:28.911Z,79.50
2019-02-09T09:48:57.604Z,80.20
2019-02-09T09:51:26.618Z,78.00
2019-02-09T09:53:55.938Z,79.60
2019-02-09T09:56:25.133Z,81.60
2019-02-09T09:58:54.301Z,82.10
2019-02-09T10:01:25.794Z,79.80
2019-02-09T10:03:55.177Z,74.20
2019-02-09T10:06:25.916Z,70.90
2019-02-09T10:08:55.876Z,69.20
2019-02-09T10:11:26.670Z,70.70
2019-02-09T10:13:55.460Z,73.00
2019-02-09T10:16:24.320Z,73.20
2019-02-09T10:19:11.878Z,70.60
2019-02-09T10:21:25.309Z,71.30
2019-02-09T10:23:58.974Z,74.20
2019-02-09T10:26:32.045Z,74.30
2019-02-09T10:29:01.863Z,78.20
2019-02-09T10:31:32.087Z,82.50
2019-02-09T10:34:01.075Z,85.50
2019-02-09T10:36:31.320Z,88.40
2019-02-09T10:39:04.796Z,90.00
2019-02-09T10:41:33.579Z,91.50
2019-02-09T10:44:02.730Z,92.00
2019-02-09T10:46:31.530Z,94.60
2019-02-09T10:49:00.231Z,94.70
2019-02-09T10:51:30.851Z,94.80
2019-02-09T10:53:59.686Z,94.30
2019-02-09T10:56:28.566Z,93.70
2019-02-09T10:58:57.328Z,90.30
2019-02-09T11:01:26.133Z,83.40
2019-02-09T11:03:54.905Z,82.80
2019-02-09T11:06:23.645Z,83.10
2019-02-09T11:08:52.487Z,83.90
2019-02-09T11:11:21.511Z,84.60
2019-02-09T11:13:50.406Z,87.70
2019-02-09T11:16:19.931Z,88.20
2019-02-09T11:18:48.965Z,88.70
2019-02-09T11:21:25.375Z,89.80
2019-02-09T11:23:59.930Z,90.40
2019-02-09T11:26:34.756Z,89.70
2019-02-09T11:29:03.847Z,90.20
2019-02-09T11:31:32.499Z,90.10
2019-02-09T11:34:01.043Z,90.40
2019-02-09T11:36:29.703Z,90.80
2019-02-09T11:38:58.340Z,90.40
2019-02-09T11:41:27.096Z,89.50
2019-02-09T11:47:23.958Z,90.30
2019-02-09T11:49:52.707Z,90.60
2019-02-09T11:52:22.214Z,90.10
2019-02-09T11:54:51.075Z,90.30
2019-02-09T11:57:19.836Z,90.20
2019-02-09T11:59:48.467Z,90.50
2019-02-09T12:02:17.207Z,90.20
2019-02-09T12:04:46.071Z,90.30
2019-02-09T12:07:16.743Z,90.00
2019-02-09T12:09:50.911Z,90.40
2019-02-09T12:12:25.140Z,90.60
2019-02-09T12:14:54.070Z,90.60
2019-02-09T12:17:23.023Z,91.10
2019-02-09T12:19:52.198Z,90.80
2019-02-09T12:22:21.305Z,91.50
2019-02-09T12:24:50.279Z,92.20
2019-02-09T12:27:19.111Z,92.60
2019-02-09T12:29:56.481Z,92.40
2019-02-09T12:32:30.066Z,92.30
2019-02-09T12:35:06.630Z,92.40
2019-02-09T12:37:39.638Z,91.90
2019-02-09T12:40:23.378Z,91.70
2019-02-09T12:42:52.997Z,91.50
2019-02-09T12:45:25.691Z,91.90
2019-02-09T12:47:54.527Z,92.10
2019-02-09T12:50:27.593Z,91.10
2019-02-09T12:53:07.237Z,91.10
2019-02-09T12:55:41.030Z,91.40
2019-02-09T12:58:15.742Z,92.30
2019-02-09T13:00:40.700Z,93.90
2019-02-09T13:03:31.080Z,94.20
2019-02-09T13:05:55.391Z,94.60
2019-02-09T13:08:25.048Z,95.10
2019-02-09T13:10:53.848Z,95.20
2019-02-09T13:13:22.555Z,95.20
2019-02-09T13:15:51.407Z,95.40
2019-02-09T13:18:20.230Z,94.70
2019-02-09T13:20:49.189Z,94.10
2019-02-09T13:23:18.514Z,94.00
2019-02-09T13:25:50.155Z,94.10
2019-02-09T13:28:18.996Z,93.20
2019-02-09T13:30:47.784Z,93.20
2019-02-09T13:33:16.592Z,93.60
2019-02-09T13:35:45.424Z,94.50
2019-02-09T13:38:14.232Z,94.70
2019-02-09T13:40:44.113Z,94.90
2019-02-09T13:43:12.928Z,95.40
2019-02-09T13:45:46.429Z,95.50
2019-02-09T13:48:15.269Z,95.40
2019-02-09T13:50:44.668Z,94.70
2019-02-09T13:53:17.605Z,95.40
2019-02-09T13:55:48.830Z,95.20
2019-02-09T13:58:18.907Z,94.80
2019-02-09T14:00:48.015Z,94.00
2019-02-09T14:03:17.127Z,94.30
2019-02-09T14:05:46.137Z,94.40
2019-02-09T14:08:14.989Z,94.60
2019-02-09T14:10:43.946Z,94.50
2019-02-09T14:13:14.547Z,94.70
2019-02-09T14:15:43.477Z,94.90
2019-02-09T14:18:13.756Z,95.10
2019-02-09T14:20:42.586Z,95.40
2019-02-09T14:23:11.459Z,95.60
2019-02-09T14:25:40.291Z,96.10
2019-02-09T14:28:09.202Z,96.50
2019-02-09T14:30:39.408Z,97.30
2019-02-09T14:33:10.592Z,98.40
2019-02-09T14:35:41.031Z,98.60
2019-02-09T14:38:09.999Z,98.70
2019-02-09T14:40:38.954Z,99.00
2019-02-09T14:43:08.964Z,99.40
2019-02-09T14:45:40.422Z,99.50
2019-02-09T14:48:09.600Z,99.80
2019-02-09T14:50:38.385Z,99.80
2019-02-09T14:53:08.257Z,99.50
2019-02-09T14:55:39.448Z,99.60
2019-02-09T14:58:09.882Z,99.90
2019-02-09T15:00:50.104Z,99.00
2019-02-09T15:03:26.125Z,98.00
2019-02-09T15:05:49.440Z,98.10
2019-02-09T15:08:18.167Z,98.30
2019-02-09T15:10:46.932Z,98.60
2019-02-09T15:13:17.650Z,98.80
2019-02-09T15:15:55.167Z,98.70
2019-02-09T15:18:24.007Z,98.30
2019-02-09T15:21:01.448Z,98.50
2019-02-09T15:23:30.792Z,98.80
2019-02-09T15:25:59.540Z,98.70
2019-02-09T15:28:28.374Z,99.00
2019-02-09T15:30:57.222Z,99.10
2019-02-09T15:33:26.009Z,99.20
2019-02-09T15:35:56.058Z,99.20
2019-02-09T15:38:27.242Z,99.40
2019-02-09T15:40:56.414Z,98.80
2019-02-09T15:43:25.264Z,98.60
2019-02-09T15:45:55.464Z,98.70
2019-02-09T15:48:24.390Z,98.40
2019-02-09T15:50:55.784Z,98.30
2019-02-09T15:53:26.535Z,98.10
2019-02-09T15:55:59.757Z,98.20
2019-02-09T15:58:28.506Z,98.40
2019-02-09T16:01:00.109Z,98.50
2019-02-09T16:03:32.430Z,98.80
2019-02-09T16:06:05.682Z,98.80
2019-02-09T16:11:26.444Z,99.30
2019-02-09T16:13:58.178Z,99.50
2019-02-09T16:16:30.477Z,99.70
2019-02-09T16:19:06.965Z,99.80
2019-02-09T16:21:38.230Z,99.90
2019-02-09T16:24:13.546Z,99.90
2019-02-09T16:26:45.577Z,99.90
2019-02-09T16:32:15.903Z,99.90
2019-02-09T16:34:45.535Z,99.70
2019-02-09T16:37:16.678Z,99.90
2019-02-09T16:39:50.613Z,99.50
2019-02-09T16:42:20.177Z,99.60
2019-02-09T16:44:50.081Z,99.80
2019-02-09T16:47:21.203Z,99.80
2019-02-09T16:49:52.726Z,99.90
2019-02-09T16:52:25.938Z,99.90
2019-02-09T16:54:56.290Z,99.90
2019-02-09T16:57:28.418Z,99.90
2019-02-09T17:00:03.941Z,99.90
2019-02-09T17:02:34.669Z,99.90
2019-02-09T17:05:09.229Z,99.90
2019-02-09T17:07:40.273Z,99.90
2019-02-09T17:10:14.474Z,99.90
2019-02-09T17:12:44.152Z,99.90
2019-02-09T17:15:21.459Z,99.90
2019-02-09T17:17:51.276Z,99.90
2019-02-09T17:20:21.140Z,99.90
2019-02-09T17:22:51.812Z,99.90
2019-02-09T17:25:26.580Z,99.90
2019-02-09T17:27:58.421Z,99.90
2019-02-09T17:30:32.724Z,99.90
2019-02-09T17:33:02.233Z,99.90
2019-02-09T17:35:33.257Z,99.90
2019-02-09T17:38:02.886Z,99.90
2019-02-09T17:40:43.894Z,99.90
2019-02-09T17:43:14.707Z,99.90
2019-02-09T17:45:49.737Z,99.90
2019-02-09T17:48:19.499Z,99.90
2019-02-09T17:50:49.112Z,99.90
2019-02-09T17:53:18.527Z,99.90
2019-02-09T17:55:48.101Z,99.90
2019-02-09T17:58:17.393Z,99.90
2019-02-09T18:00:53.171Z,99.90
2019-02-09T18:03:23.488Z,99.90
2019-02-09T18:05:53.219Z,99.90
2019-02-09T18:08:23.482Z,99.90
2019-02-09T18:10:55.097Z,99.90
2019-02-09T18:13:28.269Z,99.90
2019-02-09T18:15:57.776Z,99.90
2019-02-09T18:18:27.028Z,99.90
2019-02-09T18:20:56.690Z,99.90
2019-02-09T18:23:26.159Z,99.90
2019-02-09T18:25:55.502Z,99.90
2019-02-09T18:28:25.150Z,99.90
2019-02-09T18:30:54.722Z,99.90
2019-02-09T18:33:26.444Z,99.90
2019-02-09T18:35:55.944Z,99.90
2019-02-09T18:38:26.309Z,99.90
2019-02-09T18:40:55.764Z,99.90
2019-02-09T18:43:25.354Z,99.90
2019-02-09T18:45:57.803Z,99.90
2019-02-09T18:48:28.320Z,99.90
2019-02-09T18:50:57.911Z,99.90
2019-02-09T18:53:30.114Z,99.90
2019-02-09T18:55:59.648Z,99.90
2019-02-09T18:58:31.288Z,99.90
2019-02-09T19:01:02.175Z,99.90
2019-02-09T19:03:31.499Z,99.90
2019-02-09T19:06:03.366Z,99.90
2019-02-09T19:08:32.740Z,99.90
2019-02-09T19:11:02.353Z,99.90
2019-02-09T19:13:32.101Z,99.90
2019-02-09T19:16:01.656Z,99.90
2019-02-09T19:18:32.501Z,99.90
2019-02-09T19:21:01.870Z,99.90
2019-02-09T19:23:32.530Z,99.90
2019-02-09T19:26:02.821Z,99.90
2019-02-09T19:28:34.720Z,99.90
2019-02-09T19:31:06.170Z,99.90
2019-02-09T19:33:35.696Z,99.90
2019-02-09T19:36:07.352Z,99.90
2019-02-09T19:38:38.576Z,99.90
2019-02-09T19:41:10.353Z,99.90
2019-02-09T19:43:39.578Z,99.90
2019-02-09T19:46:10.834Z,99.90
2019-02-09T19:48:40.994Z,99.90
2019-02-09T19:51:10.063Z,99.90
2019-02-09T19:53:44.880Z,99.90
2019-02-09T19:56:19.914Z,99.90
2019-02-09T19:58:51.359Z,99.90
2019-02-09T20:01:20.649Z,99.90
2019-02-09T20:03:50.941Z,99.90
2019-02-09T20:06:22.226Z,99.90
2019-02-09T20:08:56.075Z,99.90
2019-02-09T20:12:28.887Z,99.90
2019-02-09T20:13:56.976Z,99.90
2019-02-09T20:16:27.252Z,99.90
2019-02-09T20:18:58.728Z,99.90
2019-02-09T20:21:27.376Z,99.90
2019-02-09T20:23:57.745Z,99.90
2019-02-09T20:26:26.571Z,99.90
2019-02-09T20:28:56.382Z,99.90
2019-02-09T20:31:25.490Z,99.90
2019-02-09T20:33:55.954Z,99.90
2019-02-09T20:36:33.883Z,99.90
2019-02-09T20:39:04.645Z,99.90
2019-02-09T20:41:33.091Z,99.90
2019-02-09T20:44:01.750Z,99.90
2019-02-09T20:46:30.492Z,99.90
2019-02-09T20:48:59.370Z,99.90
2019-02-09T20:51:28.121Z,99.90
2019-02-09T20:53:56.875Z,99.90
2019-02-09T20:56:25.629Z,99.90
2019-02-09T20:58:54.533Z,99.90
2019-02-09T21:01:23.289Z,99.90
2019-02-09T21:03:52.015Z,99.90
2019-02-09T21:06:20.746Z,99.90
2019-02-09T21:08:49.318Z,99.90
2019-02-09T21:11:18.968Z,99.90
2019-02-09T21:13:47.764Z,99.90
2019-02-09T21:16:16.462Z,99.90
2019-02-09T21:18:45.117Z,99.90
2019-02-09T21:21:13.746Z,99.90
2019-02-09T21:23:42.373Z,99.90
2019-02-09T21:26:11.176Z,99.90
2019-02-09T21:28:40.001Z,99.90
2019-02-09T21:31:08.591Z,99.90
2019-02-09T21:33:37.578Z,99.90
2019-02-09T21:36:06.311Z,99.90
2019-02-09T21:38:34.940Z,99.90
2019-02-09T21:41:03.642Z,99.90
2019-02-09T21:43:45.462Z,99.90
2019-02-09T21:46:14.939Z,99.90
2019-02-09T21:48:44.010Z,99.90
2019-02-09T21:51:12.670Z,99.90
2019-02-09T21:53:41.297Z,99.90
2019-02-09T21:56:09.989Z,99.90
2019-02-09T21:58:38.715Z,99.90
2019-02-09T22:01:07.413Z,99.90
2019-02-09T22:03:37.447Z,99.90
2019-02-09T22:06:06.298Z,99.90
2019-02-09T22:08:35.220Z,99.90
2019-02-09T22:11:04.632Z,99.90
2019-02-09T22:13:33.876Z,99.90
2019-02-09T22:16:02.928Z,99.90
2019-02-09T22:18:31.628Z,99.90
2019-02-09T22:21:00.233Z,99.90
2019-02-09T22:23:29.497Z,99.90
2019-02-09T22:25:58.395Z,99.90
2019-02-09T22:28:27.019Z,99.90
2019-02-09T22:30:56.449Z,99.90
2019-02-09T22:33:25.213Z,99.90
2019-02-09T22:35:59.881Z,99.90
2019-02-09T22:38:24.053Z,99.90
2019-02-09T22:40:52.786Z,99.90
2019-02-09T22:43:21.437Z,99.90
2019-02-09T22:45:50.083Z,99.90
2019-02-09T22:48:18.644Z,99.90
2019-02-09T22:50:48.372Z,99.90
2019-02-09T22:53:17.073Z,99.90
2019-02-09T22:55:45.782Z,99.90
2019-02-09T22:58:14.533Z,99.90
2019-02-09T23:00:53.453Z,99.90
2019-02-09T23:03:27.951Z,99.90
2019-02-09T23:06:14.477Z,99.90
2019-02-09T23:08:46.295Z,99.90
2019-02-09T23:11:15.122Z,99.90
2019-02-09T23:13:43.831Z,99.90
2019-02-09T23:16:12.461Z,99.90
2019-02-09T23:18:41.130Z,99.90
2019-02-09T23:21:09.685Z,99.90
2019-02-09T23:23:38.321Z,99.90
2019-02-09T23:26:06.982Z,99.90
2019-02-09T23:28:35.576Z,99.90
2019-02-09T23:31:04.197Z,99.90
2019-02-09T23:33:32.909Z,99.90
2019-02-09T23:36:01.630Z,99.90
2019-02-09T23:38:30.189Z,99.90
2019-02-09T23:40:58.817Z,99.90
2019-02-09T23:43:27.418Z,99.90
2019-02-09T23:45:55.980Z,99.90
2019-02-09T23:48:24.676Z,99.90
2019-02-09T23:50:53.278Z,99.90
2019-02-09T23:53:21.910Z,99.90
2019-02-09T23:55:50.581Z,99.90
2019-02-09T23:58:19.220Z,99.90
